sensor_id;sensor_type;location;lat;lon;timestamp;P1;durP1;ratioP1;P2;durP2;ratioP2
40997;SDS011;26740;45.944;12.480;2024-02-14T00:00:32;2.17;;;1.10;;
40997;SDS011;26740;45.944;12.480;2024-02-14T00:02:58;5.32;;;1.60;;
40997;SDS011;26740;45.944;12.480;2024-02-14T00:05:23;2.28;;;1.25;;
40997;SDS011;26740;45.944;12.480;2024-02-14T00:07:49;2.80;;;1.75;;
40997;SDS011;26740;45.944;12.480;2024-02-14T00:10:15;3.03;;;1.45;;
40997;SDS011;26740;45.944;12.480;2024-02-14T00:12:40;4.20;;;1.80;;
40997;SDS011;26740;45.944;12.480;2024-02-14T00:15:06;5.15;;;1.98;;
40997;SDS011;26740;45.944;12.480;2024-02-14T00:17:33;8.07;;;1.58;;
40997;SDS011;26740;45.944;12.480;2024-02-14T00:20:00;7.57;;;1.80;;
40997;SDS011;26740;45.944;12.480;2024-02-14T00:22:29;6.30;;;1.67;;
40997;SDS011;26740;45.944;12.480;2024-02-14T00:24:55;3.58;;;1.17;;
40997;SDS011;26740;45.944;12.480;2024-02-14T00:27:20;1.73;;;1.15;;
40997;SDS011;26740;45.944;12.480;2024-02-14T00:29:46;2.38;;;1.95;;
40997;SDS011;26740;45.944;12.480;2024-02-14T00:32:13;2.10;;;1.50;;
40997;SDS011;26740;45.944;12.480;2024-02-14T00:34:39;6.32;;;1.70;;
40997;SDS011;26740;45.944;12.480;2024-02-14T00:37:04;3.60;;;1.70;;
40997;SDS011;26740;45.944;12.480;2024-02-14T00:39:30;3.28;;;1.35;;
40997;SDS011;26740;45.944;12.480;2024-02-14T00:41:56;2.58;;;1.75;;
40997;SDS011;26740;45.944;12.480;2024-02-14T00:44:21;3.35;;;2.15;;
40997;SDS011;26740;45.944;12.480;2024-02-14T00:46:47;3.33;;;2.20;;
40997;SDS011;26740;45.944;12.480;2024-02-14T00:49:13;4.30;;;3.00;;
40997;SDS011;26740;45.944;12.480;2024-02-14T00:51:40;8.05;;;2.88;;
40997;SDS011;26740;45.944;12.480;2024-02-14T00:54:06;2.95;;;2.17;;
40997;SDS011;26740;45.944;12.480;2024-02-14T00:56:32;8.93;;;2.45;;
40997;SDS011;26740;45.944;12.480;2024-02-14T00:58:58;2.92;;;2.42;;
40997;SDS011;26740;45.944;12.480;2024-02-14T01:01:23;2.40;;;1.85;;
40997;SDS011;26740;45.944;12.480;2024-02-14T01:03:50;5.53;;;2.75;;
40997;SDS011;26740;45.944;12.480;2024-02-14T01:06:16;2.35;;;1.90;;
40997;SDS011;26740;45.944;12.480;2024-02-14T01:08:43;3.47;;;1.90;;
40997;SDS011;26740;45.944;12.480;2024-02-14T01:11:09;5.22;;;2.95;;
40997;SDS011;26740;45.944;12.480;2024-02-14T01:13:35;2.75;;;2.25;;
40997;SDS011;26740;45.944;12.480;2024-02-14T01:16:02;4.88;;;2.92;;
40997;SDS011;26740;45.944;12.480;2024-02-14T01:18:29;3.30;;;2.05;;
40997;SDS011;26740;45.944;12.480;2024-02-14T01:20:54;3.90;;;2.83;;
40997;SDS011;26740;45.944;12.480;2024-02-14T01:23:20;3.28;;;2.40;;
40997;SDS011;26740;45.944;12.480;2024-02-14T01:25:46;3.25;;;1.85;;
40997;SDS011;26740;45.944;12.480;2024-02-14T01:28:11;3.30;;;2.30;;
40997;SDS011;26740;45.944;12.480;2024-02-14T01:30:37;5.25;;;2.75;;
40997;SDS011;26740;45.944;12.480;2024-02-14T01:33:03;5.82;;;2.40;;
40997;SDS011;26740;45.944;12.480;2024-02-14T01:35:31;3.75;;;2.60;;
40997;SDS011;26740;45.944;12.480;2024-02-14T01:37:57;4.68;;;2.15;;
40997;SDS011;26740;45.944;12.480;2024-02-14T01:40:23;3.17;;;2.88;;
40997;SDS011;26740;45.944;12.480;2024-02-14T01:42:49;3.75;;;2.00;;
40997;SDS011;26740;45.944;12.480;2024-02-14T01:45:15;3.22;;;2.03;;
40997;SDS011;26740;45.944;12.480;2024-02-14T01:47:40;2.45;;;1.60;;
40997;SDS011;26740;45.944;12.480;2024-02-14T01:50:09;3.30;;;1.60;;
40997;SDS011;26740;45.944;12.480;2024-02-14T01:52:36;5.07;;;1.20;;
40997;SDS011;26740;45.944;12.480;2024-02-14T01:55:04;1.85;;;1.05;;
40997;SDS011;26740;45.944;12.480;2024-02-14T01:57:31;3.92;;;1.17;;
40997;SDS011;26740;45.944;12.480;2024-02-14T01:59:59;3.88;;;1.30;;
40997;SDS011;26740;45.944;12.480;2024-02-14T02:02:33;1.77;;;1.00;;
40997;SDS011;26740;45.944;12.480;2024-02-14T02:05:01;2.08;;;1.42;;
40997;SDS011;26740;45.944;12.480;2024-02-14T02:07:27;1.92;;;1.27;;
40997;SDS011;26740;45.944;12.480;2024-02-14T02:09:53;2.28;;;1.48;;
40997;SDS011;26740;45.944;12.480;2024-02-14T02:12:19;2.50;;;1.52;;
40997;SDS011;26740;45.944;12.480;2024-02-14T02:14:44;1.70;;;1.23;;
40997;SDS011;26740;45.944;12.480;2024-02-14T02:17:10;1.48;;;1.02;;
40997;SDS011;26740;45.944;12.480;2024-02-14T02:19:36;2.40;;;1.15;;
40997;SDS011;26740;45.944;12.480;2024-02-14T02:22:02;2.00;;;1.15;;
40997;SDS011;26740;45.944;12.480;2024-02-14T02:24:29;3.90;;;1.60;;
40997;SDS011;26740;45.944;12.480;2024-02-14T02:26:55;1.75;;;1.10;;
40997;SDS011;26740;45.944;12.480;2024-02-14T02:29:22;2.17;;;1.10;;
40997;SDS011;26740;45.944;12.480;2024-02-14T02:31:47;2.50;;;1.58;;
40997;SDS011;26740;45.944;12.480;2024-02-14T02:34:13;2.60;;;1.20;;
40997;SDS011;26740;45.944;12.480;2024-02-14T02:36:40;4.20;;;1.33;;
40997;SDS011;26740;45.944;12.480;2024-02-14T02:39:06;1.75;;;0.90;;
40997;SDS011;26740;45.944;12.480;2024-02-14T02:41:32;1.60;;;1.08;;
40997;SDS011;26740;45.944;12.480;2024-02-14T02:43:58;2.30;;;1.25;;
40997;SDS011;26740;45.944;12.480;2024-02-14T02:46:24;2.83;;;1.30;;
40997;SDS011;26740;45.944;12.480;2024-02-14T02:48:51;1.33;;;1.05;;
40997;SDS011;26740;45.944;12.480;2024-02-14T02:51:19;6.22;;;1.35;;
40997;SDS011;26740;45.944;12.480;2024-02-14T02:53:45;1.67;;;1.50;;
40997;SDS011;26740;45.944;12.480;2024-02-14T02:56:11;2.60;;;1.63;;
40997;SDS011;26740;45.944;12.480;2024-02-14T02:58:38;1.45;;;1.30;;
40997;SDS011;26740;45.944;12.480;2024-02-14T03:01:07;2.67;;;1.50;;
40997;SDS011;26740;45.944;12.480;2024-02-14T03:03:37;4.43;;;1.00;;
40997;SDS011;26740;45.944;12.480;2024-02-14T03:06:04;4.75;;;1.40;;
40997;SDS011;26740;45.944;12.480;2024-02-14T03:08:30;3.40;;;1.90;;
40997;SDS011;26740;45.944;12.480;2024-02-14T03:11:05;4.20;;;2.42;;
40997;SDS011;26740;45.944;12.480;2024-02-14T03:13:32;22.20;;;8.10;;
40997;SDS011;26740;45.944;12.480;2024-02-14T03:15:58;23.13;;;10.30;;
40997;SDS011;26740;45.944;12.480;2024-02-14T03:18:24;6.43;;;3.13;;
40997;SDS011;26740;45.944;12.480;2024-02-14T03:20:50;64.80;;;24.75;;
40997;SDS011;26740;45.944;12.480;2024-02-14T03:23:19;50.17;;;22.92;;
40997;SDS011;26740;45.944;12.480;2024-02-14T03:25:45;16.42;;;7.85;;
40997;SDS011;26740;45.944;12.480;2024-02-14T03:28:10;5.40;;;3.22;;
40997;SDS011;26740;45.944;12.480;2024-02-14T03:30:38;3.75;;;1.88;;
40997;SDS011;26740;45.944;12.480;2024-02-14T03:33:07;3.15;;;1.55;;
40997;SDS011;26740;45.944;12.480;2024-02-14T03:35:35;4.53;;;1.92;;
40997;SDS011;26740;45.944;12.480;2024-02-14T03:38:01;4.07;;;2.22;;
40997;SDS011;26740;45.944;12.480;2024-02-14T03:40:27;6.78;;;3.13;;
40997;SDS011;26740;45.944;12.480;2024-02-14T03:42:55;2.75;;;1.63;;
40997;SDS011;26740;45.944;12.480;2024-02-14T03:45:22;2.60;;;1.27;;
40997;SDS011;26740;45.944;12.480;2024-02-14T03:47:47;2.03;;;1.42;;
40997;SDS011;26740;45.944;12.480;2024-02-14T03:50:13;3.75;;;1.98;;
40997;SDS011;26740;45.944;12.480;2024-02-14T03:52:40;2.33;;;1.27;;
40997;SDS011;26740;45.944;12.480;2024-02-14T03:55:08;2.97;;;1.65;;
40997;SDS011;26740;45.944;12.480;2024-02-14T03:57:38;3.25;;;2.08;;
40997;SDS011;26740;45.944;12.480;2024-02-14T04:00:05;2.40;;;1.30;;
40997;SDS011;26740;45.944;12.480;2024-02-14T04:02:35;4.75;;;1.90;;
40997;SDS011;26740;45.944;12.480;2024-02-14T04:05:01;4.70;;;2.17;;
40997;SDS011;26740;45.944;12.480;2024-02-14T04:07:27;4.07;;;2.17;;
40997;SDS011;26740;45.944;12.480;2024-02-14T04:09:55;2.83;;;1.38;;
40997;SDS011;26740;45.944;12.480;2024-02-14T04:12:21;2.97;;;2.13;;
40997;SDS011;26740;45.944;12.480;2024-02-14T04:14:46;1.70;;;1.10;;
40997;SDS011;26740;45.944;12.480;2024-02-14T04:17:12;6.47;;;1.48;;
40997;SDS011;26740;45.944;12.480;2024-02-14T04:19:39;35.13;;;14.70;;
40997;SDS011;26740;45.944;12.480;2024-02-14T04:22:05;10.25;;;4.97;;
40997;SDS011;26740;45.944;12.480;2024-02-14T04:24:33;4.95;;;2.47;;
40997;SDS011;26740;45.944;12.480;2024-02-14T04:26:59;3.35;;;2.42;;
40997;SDS011;26740;45.944;12.480;2024-02-14T04:29:27;2.35;;;1.30;;
40997;SDS011;26740;45.944;12.480;2024-02-14T04:31:55;1.75;;;1.10;;
40997;SDS011;26740;45.944;12.480;2024-02-14T04:34:21;2.03;;;1.25;;
40997;SDS011;26740;45.944;12.480;2024-02-14T04:36:47;2.33;;;1.23;;
40997;SDS011;26740;45.944;12.480;2024-02-14T04:39:12;2.53;;;1.30;;
40997;SDS011;26740;45.944;12.480;2024-02-14T04:41:38;2.08;;;1.30;;
40997;SDS011;26740;45.944;12.480;2024-02-14T04:44:04;2.45;;;1.38;;
40997;SDS011;26740;45.944;12.480;2024-02-14T04:46:33;1.52;;;1.05;;
40997;SDS011;26740;45.944;12.480;2024-02-14T04:49:00;1.67;;;0.98;;
40997;SDS011;26740;45.944;12.480;2024-02-14T04:51:28;1.70;;;1.20;;
40997;SDS011;26740;45.944;12.480;2024-02-14T04:53:55;0.98;;;0.82;;
40997;SDS011;26740;45.944;12.480;2024-02-14T04:56:24;1.45;;;1.17;;
40997;SDS011;26740;45.944;12.480;2024-02-14T04:58:52;1.88;;;1.15;;
40997;SDS011;26740;45.944;12.480;2024-02-14T05:01:20;1.57;;;1.30;;
40997;SDS011;26740;45.944;12.480;2024-02-14T05:03:46;2.85;;;1.63;;
40997;SDS011;26740;45.944;12.480;2024-02-14T05:06:13;2.65;;;1.27;;
40997;SDS011;26740;45.944;12.480;2024-02-14T05:08:39;5.75;;;2.42;;
40997;SDS011;26740;45.944;12.480;2024-02-14T05:11:05;6.10;;;1.63;;
40997;SDS011;26740;45.944;12.480;2024-02-14T05:13:30;1.63;;;1.45;;
40997;SDS011;26740;45.944;12.480;2024-02-14T05:15:56;3.70;;;2.08;;
40997;SDS011;26740;45.944;12.480;2024-02-14T05:18:22;2.08;;;0.95;;
40997;SDS011;26740;45.944;12.480;2024-02-14T05:20:48;2.35;;;0.93;;
40997;SDS011;26740;45.944;12.480;2024-02-14T05:23:14;1.50;;;1.00;;
40997;SDS011;26740;45.944;12.480;2024-02-14T05:25:42;2.33;;;1.83;;
40997;SDS011;26740;45.944;12.480;2024-02-14T05:28:11;2.30;;;1.02;;
40997;SDS011;26740;45.944;12.480;2024-02-14T05:30:39;2.60;;;1.08;;
40997;SDS011;26740;45.944;12.480;2024-02-14T05:33:05;2.88;;;1.13;;
40997;SDS011;26740;45.944;12.480;2024-02-14T05:35:31;0.90;;;0.70;;
40997;SDS011;26740;45.944;12.480;2024-02-14T05:37:56;3.28;;;1.20;;
40997;SDS011;26740;45.944;12.480;2024-02-14T05:40:22;1.73;;;0.90;;
40997;SDS011;26740;45.944;12.480;2024-02-14T05:42:49;1.92;;;1.30;;
40997;SDS011;26740;45.944;12.480;2024-02-14T05:45:15;1.77;;;1.15;;
40997;SDS011;26740;45.944;12.480;2024-02-14T05:47:40;1.27;;;1.00;;
40997;SDS011;26740;45.944;12.480;2024-02-14T05:50:07;1.65;;;1.10;;
40997;SDS011;26740;45.944;12.480;2024-02-14T05:52:34;1.70;;;1.15;;
40997;SDS011;26740;45.944;12.480;2024-02-14T05:55:00;2.08;;;1.00;;
40997;SDS011;26740;45.944;12.480;2024-02-14T05:57:26;1.75;;;1.00;;
40997;SDS011;26740;45.944;12.480;2024-02-14T05:59:52;1.65;;;0.90;;
40997;SDS011;26740;45.944;12.480;2024-02-14T06:02:17;1.77;;;0.93;;
40997;SDS011;26740;45.944;12.480;2024-02-14T06:04:43;3.03;;;1.38;;
40997;SDS011;26740;45.944;12.480;2024-02-14T06:07:08;5.63;;;1.23;;
40997;SDS011;26740;45.944;12.480;2024-02-14T06:09:36;3.10;;;1.27;;
40997;SDS011;26740;45.944;12.480;2024-02-14T06:12:02;3.20;;;1.77;;
40997;SDS011;26740;45.944;12.480;2024-02-14T06:14:28;2.15;;;1.05;;
40997;SDS011;26740;45.944;12.480;2024-02-14T06:16:56;2.00;;;1.20;;
40997;SDS011;26740;45.944;12.480;2024-02-14T06:19:24;4.35;;;1.02;;
40997;SDS011;26740;45.944;12.480;2024-02-14T06:21:50;1.38;;;0.82;;
40997;SDS011;26740;45.944;12.480;2024-02-14T06:24:15;4.10;;;1.08;;
40997;SDS011;26740;45.944;12.480;2024-02-14T06:26:42;1.30;;;1.00;;
40997;SDS011;26740;45.944;12.480;2024-02-14T06:29:08;3.45;;;1.30;;
40997;SDS011;26740;45.944;12.480;2024-02-14T06:31:33;2.60;;;1.25;;
40997;SDS011;26740;45.944;12.480;2024-02-14T06:33:59;4.97;;;1.40;;
40997;SDS011;26740;45.944;12.480;2024-02-14T06:36:25;5.63;;;2.17;;
40997;SDS011;26740;45.944;12.480;2024-02-14T06:38:50;4.90;;;3.25;;
40997;SDS011;26740;45.944;12.480;2024-02-14T06:41:16;5.20;;;2.35;;
40997;SDS011;26740;45.944;12.480;2024-02-14T06:43:41;4.25;;;1.85;;
40997;SDS011;26740;45.944;12.480;2024-02-14T06:46:07;5.00;;;1.88;;
40997;SDS011;26740;45.944;12.480;2024-02-14T06:48:33;9.45;;;2.92;;
40997;SDS011;26740;45.944;12.480;2024-02-14T06:50:59;3.63;;;1.10;;
40997;SDS011;26740;45.944;12.480;2024-02-14T06:53:24;4.13;;;1.40;;
40997;SDS011;26740;45.944;12.480;2024-02-14T06:55:50;2.70;;;1.75;;
40997;SDS011;26740;45.944;12.480;2024-02-14T06:58:15;7.85;;;2.13;;
40997;SDS011;26740;45.944;12.480;2024-02-14T07:00:41;4.80;;;2.63;;
40997;SDS011;26740;45.944;12.480;2024-02-14T07:03:07;7.25;;;2.00;;
40997;SDS011;26740;45.944;12.480;2024-02-14T07:05:32;10.68;;;1.52;;
40997;SDS011;26740;45.944;12.480;2024-02-14T07:07:58;8.23;;;0.93;;
40997;SDS011;26740;45.944;12.480;2024-02-14T07:10:23;0.88;;;0.55;;
40997;SDS011;26740;45.944;12.480;2024-02-14T07:12:49;2.67;;;1.05;;
40997;SDS011;26740;45.944;12.480;2024-02-14T07:15:14;1.50;;;0.50;;
40997;SDS011;26740;45.944;12.480;2024-02-14T07:17:40;4.57;;;1.05;;
40997;SDS011;26740;45.944;12.480;2024-02-14T07:20:07;4.80;;;1.00;;
40997;SDS011;26740;45.944;12.480;2024-02-14T07:22:35;10.33;;;1.27;;
40997;SDS011;26740;45.944;12.480;2024-02-14T07:25:01;1.90;;;0.82;;
40997;SDS011;26740;45.944;12.480;2024-02-14T07:27:27;3.35;;;0.93;;
40997;SDS011;26740;45.944;12.480;2024-02-14T07:29:53;4.20;;;0.90;;
40997;SDS011;26740;45.944;12.480;2024-02-14T07:32:18;4.30;;;1.00;;
40997;SDS011;26740;45.944;12.480;2024-02-14T07:34:44;2.17;;;1.08;;
40997;SDS011;26740;45.944;12.480;2024-02-14T07:37:11;3.25;;;0.98;;
40997;SDS011;26740;45.944;12.480;2024-02-14T07:39:36;2.97;;;0.73;;
40997;SDS011;26740;45.944;12.480;2024-02-14T07:42:02;2.83;;;1.13;;
40997;SDS011;26740;45.944;12.480;2024-02-14T07:44:28;4.82;;;1.35;;
40997;SDS011;26740;45.944;12.480;2024-02-14T07:46:54;6.07;;;2.78;;
40997;SDS011;26740;45.944;12.480;2024-02-14T07:49:19;3.22;;;2.63;;
40997;SDS011;26740;45.944;12.480;2024-02-14T07:51:46;3.10;;;2.33;;
40997;SDS011;26740;45.944;12.480;2024-02-14T07:54:11;1.60;;;1.10;;
40997;SDS011;26740;45.944;12.480;2024-02-14T07:56:37;4.70;;;2.08;;
40997;SDS011;26740;45.944;12.480;2024-02-14T07:59:02;4.30;;;1.75;;
40997;SDS011;26740;45.944;12.480;2024-02-14T08:01:30;3.75;;;1.63;;
40997;SDS011;26740;45.944;12.480;2024-02-14T08:03:57;2.25;;;1.48;;
40997;SDS011;26740;45.944;12.480;2024-02-14T08:06:23;1.65;;;1.38;;
40997;SDS011;26740;45.944;12.480;2024-02-14T08:08:49;3.00;;;1.80;;
40997;SDS011;26740;45.944;12.480;2024-02-14T08:11:19;2.88;;;1.75;;
40997;SDS011;26740;45.944;12.480;2024-02-14T08:13:45;2.13;;;1.23;;
40997;SDS011;26740;45.944;12.480;2024-02-14T08:16:10;3.15;;;1.30;;
40997;SDS011;26740;45.944;12.480;2024-02-14T08:18:36;2.53;;;1.63;;
40997;SDS011;26740;45.944;12.480;2024-02-14T08:21:02;2.50;;;1.33;;
40997;SDS011;26740;45.944;12.480;2024-02-14T08:23:29;2.67;;;1.63;;
40997;SDS011;26740;45.944;12.480;2024-02-14T08:25:54;2.17;;;1.30;;
40997;SDS011;26740;45.944;12.480;2024-02-14T08:28:20;2.22;;;1.60;;
40997;SDS011;26740;45.944;12.480;2024-02-14T08:30:46;2.10;;;1.60;;
40997;SDS011;26740;45.944;12.480;2024-02-14T08:33:12;1.85;;;1.48;;
40997;SDS011;26740;45.944;12.480;2024-02-14T08:35:38;4.60;;;4.00;;
40997;SDS011;26740;45.944;12.480;2024-02-14T08:38:04;2.45;;;2.00;;
40997;SDS011;26740;45.944;12.480;2024-02-14T08:40:29;2.42;;;1.45;;
40997;SDS011;26740;45.944;12.480;2024-02-14T08:42:55;1.80;;;1.60;;
40997;SDS011;26740;45.944;12.480;2024-02-14T08:45:21;1.85;;;1.60;;
40997;SDS011;26740;45.944;12.480;2024-02-14T08:47:46;3.38;;;1.58;;
40997;SDS011;26740;45.944;12.480;2024-02-14T08:50:12;5.07;;;1.65;;
40997;SDS011;26740;45.944;12.480;2024-02-14T08:52:38;4.97;;;2.00;;
40997;SDS011;26740;45.944;12.480;2024-02-14T08:55:05;3.53;;;2.22;;
40997;SDS011;26740;45.944;12.480;2024-02-14T08:57:33;13.82;;;2.58;;
40997;SDS011;26740;45.944;12.480;2024-02-14T08:59:58;13.57;;;4.40;;
40997;SDS011;26740;45.944;12.480;2024-02-14T09:02:25;19.75;;;5.75;;
40997;SDS011;26740;45.944;12.480;2024-02-14T09:04:51;19.70;;;6.00;;
40997;SDS011;26740;45.944;12.480;2024-02-14T09:07:16;19.98;;;5.38;;
40997;SDS011;26740;45.944;12.480;2024-02-14T09:09:42;17.42;;;5.68;;
40997;SDS011;26740;45.944;12.480;2024-02-14T09:12:07;21.52;;;6.57;;
40997;SDS011;26740;45.944;12.480;2024-02-14T09:14:33;22.85;;;7.30;;
40997;SDS011;26740;45.944;12.480;2024-02-14T09:16:59;7.00;;;3.00;;
40997;SDS011;26740;45.944;12.480;2024-02-14T09:19:24;7.20;;;2.70;;
40997;SDS011;26740;45.944;12.480;2024-02-14T09:21:52;5.97;;;2.15;;
40997;SDS011;26740;45.944;12.480;2024-02-14T09:24:18;3.97;;;1.13;;
40997;SDS011;26740;45.944;12.480;2024-02-14T09:26:43;2.67;;;0.82;;
40997;SDS011;26740;45.944;12.480;2024-02-14T09:29:09;4.88;;;1.75;;
40997;SDS011;26740;45.944;12.480;2024-02-14T09:31:37;1.30;;;0.47;;
40997;SDS011;26740;45.944;12.480;2024-02-14T09:34:03;2.05;;;0.60;;
40997;SDS011;26740;45.944;12.480;2024-02-14T09:36:28;0.88;;;0.40;;
40997;SDS011;26740;45.944;12.480;2024-02-14T09:38:54;1.88;;;0.73;;
40997;SDS011;26740;45.944;12.480;2024-02-14T09:44:02;0.60;;;0.30;;
40997;SDS011;26740;45.944;12.480;2024-02-14T09:46:28;0.55;;;0.30;;
40997;SDS011;26740;45.944;12.480;2024-02-14T09:48:55;0.73;;;0.45;;
40997;SDS011;26740;45.944;12.480;2024-02-14T09:51:24;0.80;;;0.35;;
40997;SDS011;26740;45.944;12.480;2024-02-14T09:53:50;0.90;;;0.52;;
40997;SDS011;26740;45.944;12.480;2024-02-14T09:56:18;0.60;;;0.50;;
40997;SDS011;26740;45.944;12.480;2024-02-14T09:58:48;0.35;;;0.20;;
40997;SDS011;26740;45.944;12.480;2024-02-14T10:01:20;1.08;;;0.40;;
40997;SDS011;26740;45.944;12.480;2024-02-14T10:03:49;1.10;;;0.45;;
40997;SDS011;26740;45.944;12.480;2024-02-14T10:06:18;1.15;;;0.38;;
40997;SDS011;26740;45.944;12.480;2024-02-14T10:08:48;1.33;;;0.47;;
40997;SDS011;26740;45.944;12.480;2024-02-14T10:11:14;0.70;;;0.35;;
40997;SDS011;26740;45.944;12.480;2024-02-14T10:13:40;0.43;;;0.25;;
40997;SDS011;26740;45.944;12.480;2024-02-14T10:16:07;0.85;;;0.30;;
40997;SDS011;26740;45.944;12.480;2024-02-14T10:18:33;4.13;;;0.50;;
40997;SDS011;26740;45.944;12.480;2024-02-14T10:20:59;1.50;;;0.40;;
40997;SDS011;26740;45.944;12.480;2024-02-14T10:23:28;1.05;;;0.30;;
40997;SDS011;26740;45.944;12.480;2024-02-14T10:25:54;1.70;;;0.40;;
40997;SDS011;26740;45.944;12.480;2024-02-14T10:28:23;3.00;;;0.50;;
40997;SDS011;26740;45.944;12.480;2024-02-14T10:30:49;1.05;;;0.50;;
40997;SDS011;26740;45.944;12.480;2024-02-14T10:33:17;3.75;;;0.50;;
40997;SDS011;26740;45.944;12.480;2024-02-14T10:35:44;2.65;;;0.70;;
40997;SDS011;26740;45.944;12.480;2024-02-14T10:38:11;1.02;;;0.30;;
40997;SDS011;26740;45.944;12.480;2024-02-14T10:40:37;0.50;;;0.40;;
40997;SDS011;26740;45.944;12.480;2024-02-14T10:43:07;1.63;;;0.55;;
40997;SDS011;26740;45.944;12.480;2024-02-14T10:45:34;1.23;;;0.40;;
40997;SDS011;26740;45.944;12.480;2024-02-14T10:48:02;1.83;;;0.43;;
40997;SDS011;26740;45.944;12.480;2024-02-14T10:50:30;2.17;;;0.40;;
40997;SDS011;26740;45.944;12.480;2024-02-14T10:52:58;1.60;;;0.47;;
40997;SDS011;26740;45.944;12.480;2024-02-14T10:55:29;1.90;;;0.60;;
40997;SDS011;26740;45.944;12.480;2024-02-14T10:57:57;2.95;;;0.63;;
40997;SDS011;26740;45.944;12.480;2024-02-14T11:00:23;0.80;;;0.50;;
40997;SDS011;26740;45.944;12.480;2024-02-14T11:02:49;0.93;;;0.65;;
40997;SDS011;26740;45.944;12.480;2024-02-14T11:05:18;0.75;;;0.50;;
40997;SDS011;26740;45.944;12.480;2024-02-14T11:07:49;2.83;;;0.55;;
40997;SDS011;26740;45.944;12.480;2024-02-14T11:10:18;1.15;;;0.70;;
40997;SDS011;26740;45.944;12.480;2024-02-14T11:12:49;1.15;;;0.40;;
40997;SDS011;26740;45.944;12.480;2024-02-14T11:15:19;1.25;;;0.63;;
40997;SDS011;26740;45.944;12.480;2024-02-14T11:18:03;2.15;;;0.57;;
40997;SDS011;26740;45.944;12.480;2024-02-14T11:20:33;2.40;;;0.68;;
40997;SDS011;26740;45.944;12.480;2024-02-14T11:23:01;1.45;;;0.60;;
40997;SDS011;26740;45.944;12.480;2024-02-14T11:25:30;1.73;;;0.40;;
40997;SDS011;26740;45.944;12.480;2024-02-14T11:27:57;0.95;;;0.30;;
40997;SDS011;26740;45.944;12.480;2024-02-14T11:30:31;0.63;;;0.30;;
40997;SDS011;26740;45.944;12.480;2024-02-14T11:35:54;0.52;;;0.20;;
40997;SDS011;26740;45.944;12.480;2024-02-14T11:38:20;3.75;;;0.30;;
40997;SDS011;26740;45.944;12.480;2024-02-14T11:40:55;0.60;;;0.30;;
40997;SDS011;26740;45.944;12.480;2024-02-14T11:43:24;1.10;;;0.20;;
40997;SDS011;26740;45.944;12.480;2024-02-14T11:45:50;0.60;;;0.20;;
40997;SDS011;26740;45.944;12.480;2024-02-14T11:48:17;0.68;;;0.40;;
40997;SDS011;26740;45.944;12.480;2024-02-14T11:50:45;0.75;;;0.35;;
40997;SDS011;26740;45.944;12.480;2024-02-14T11:53:15;0.88;;;0.50;;
40997;SDS011;26740;45.944;12.480;2024-02-14T11:55:44;1.83;;;0.20;;
40997;SDS011;26740;45.944;12.480;2024-02-14T11:58:14;1.73;;;0.20;;
40997;SDS011;26740;45.944;12.480;2024-02-14T12:00:41;1.55;;;0.40;;
40997;SDS011;26740;45.944;12.480;2024-02-14T12:03:15;0.60;;;0.20;;
40997;SDS011;26740;45.944;12.480;2024-02-14T12:05:43;0.40;;;0.10;;
40997;SDS011;26740;45.944;12.480;2024-02-14T12:08:09;0.45;;;0.20;;
40997;SDS011;26740;45.944;12.480;2024-02-14T12:10:35;2.72;;;0.30;;
40997;SDS011;26740;45.944;12.480;2024-02-14T12:13:09;0.55;;;0.30;;
40997;SDS011;26740;45.944;12.480;2024-02-14T12:18:05;0.63;;;0.20;;
40997;SDS011;26740;45.944;12.480;2024-02-14T12:20:31;3.33;;;0.40;;
40997;SDS011;26740;45.944;12.480;2024-02-14T12:22:58;0.75;;;0.28;;
40997;SDS011;26740;45.944;12.480;2024-02-14T12:25:24;0.30;;;0.20;;
40997;SDS011;26740;45.944;12.480;2024-02-14T12:27:51;0.40;;;0.30;;
40997;SDS011;26740;45.944;12.480;2024-02-14T12:30:17;0.40;;;0.30;;
40997;SDS011;26740;45.944;12.480;2024-02-14T12:32:45;0.77;;;0.30;;
40997;SDS011;26740;45.944;12.480;2024-02-14T12:35:11;0.50;;;0.15;;
40997;SDS011;26740;45.944;12.480;2024-02-14T12:37:37;0.70;;;0.20;;
40997;SDS011;26740;45.944;12.480;2024-02-14T12:40:03;14.93;;;1.45;;
40997;SDS011;26740;45.944;12.480;2024-02-14T12:42:30;0.60;;;0.30;;
40997;SDS011;26740;45.944;12.480;2024-02-14T12:44:57;0.95;;;0.35;;
40997;SDS011;26740;45.944;12.480;2024-02-14T12:47:23;1.25;;;0.40;;
40997;SDS011;26740;45.944;12.480;2024-02-14T12:49:50;0.95;;;0.63;;
40997;SDS011;26740;45.944;12.480;2024-02-14T12:52:16;2.40;;;0.73;;
40997;SDS011;26740;45.944;12.480;2024-02-14T12:54:42;2.20;;;0.40;;
40997;SDS011;26740;45.944;12.480;2024-02-14T12:57:08;2.60;;;0.50;;
40997;SDS011;26740;45.944;12.480;2024-02-14T12:59:34;1.77;;;0.75;;
40997;SDS011;26740;45.944;12.480;2024-02-14T13:02:00;2.45;;;0.70;;
40997;SDS011;26740;45.944;12.480;2024-02-14T13:04:25;1.42;;;0.70;;
40997;SDS011;26740;45.944;12.480;2024-02-14T13:06:51;2.20;;;0.75;;
40997;SDS011;26740;45.944;12.480;2024-02-14T13:09:17;2.10;;;0.90;;
40997;SDS011;26740;45.944;12.480;2024-02-14T13:11:42;0.95;;;0.50;;
40997;SDS011;26740;45.944;12.480;2024-02-14T13:14:08;3.20;;;1.10;;
40997;SDS011;26740;45.944;12.480;2024-02-14T13:16:34;1.42;;;1.05;;
40997;SDS011;26740;45.944;12.480;2024-02-14T13:19:00;2.47;;;1.30;;
40997;SDS011;26740;45.944;12.480;2024-02-14T13:21:26;1.63;;;0.95;;
40997;SDS011;26740;45.944;12.480;2024-02-14T13:23:51;1.77;;;1.23;;
40997;SDS011;26740;45.944;12.480;2024-02-14T13:26:17;1.52;;;1.00;;
40997;SDS011;26740;45.944;12.480;2024-02-14T13:28:43;1.48;;;1.02;;
40997;SDS011;26740;45.944;12.480;2024-02-14T13:31:08;1.65;;;1.08;;
40997;SDS011;26740;45.944;12.480;2024-02-14T13:33:35;3.70;;;1.58;;
40997;SDS011;26740;45.944;12.480;2024-02-14T13:36:01;1.95;;;1.33;;
40997;SDS011;26740;45.944;12.480;2024-02-14T13:38:27;3.08;;;1.58;;
40997;SDS011;26740;45.944;12.480;2024-02-14T13:40:54;2.35;;;1.52;;
40997;SDS011;26740;45.944;12.480;2024-02-14T13:43:19;4.55;;;2.45;;
40997;SDS011;26740;45.944;12.480;2024-02-14T13:45:45;3.42;;;1.52;;
40997;SDS011;26740;45.944;12.480;2024-02-14T13:48:13;1.60;;;1.05;;
40997;SDS011;26740;45.944;12.480;2024-02-14T13:50:38;6.53;;;1.20;;
40997;SDS011;26740;45.944;12.480;2024-02-14T13:53:05;1.67;;;1.08;;
40997;SDS011;26740;45.944;12.480;2024-02-14T13:55:32;2.83;;;1.70;;
40997;SDS011;26740;45.944;12.480;2024-02-14T13:57:57;2.35;;;1.13;;
40997;SDS011;26740;45.944;12.480;2024-02-14T14:00:23;1.92;;;1.38;;
40997;SDS011;26740;45.944;12.480;2024-02-14T14:02:49;2.35;;;1.75;;
40997;SDS011;26740;45.944;12.480;2024-02-14T14:05:15;2.75;;;1.80;;
40997;SDS011;26740;45.944;12.480;2024-02-14T14:07:41;1.33;;;1.23;;
40997;SDS011;26740;45.944;12.480;2024-02-14T14:10:07;1.40;;;1.30;;
40997;SDS011;26740;45.944;12.480;2024-02-14T14:12:34;2.67;;;1.70;;
40997;SDS011;26740;45.944;12.480;2024-02-14T14:15:00;1.88;;;1.15;;
40997;SDS011;26740;45.944;12.480;2024-02-14T14:17:26;1.75;;;1.20;;
40997;SDS011;26740;45.944;12.480;2024-02-14T14:19:52;1.27;;;1.05;;
40997;SDS011;26740;45.944;12.480;2024-02-14T14:22:19;1.15;;;0.82;;
40997;SDS011;26740;45.944;12.480;2024-02-14T14:24:45;1.88;;;1.33;;
40997;SDS011;26740;45.944;12.480;2024-02-14T14:27:10;1.30;;;1.00;;
40997;SDS011;26740;45.944;12.480;2024-02-14T14:29:40;1.27;;;0.88;;
40997;SDS011;26740;45.944;12.480;2024-02-14T14:32:11;1.70;;;1.05;;
40997;SDS011;26740;45.944;12.480;2024-02-14T14:34:37;1.75;;;0.90;;
40997;SDS011;26740;45.944;12.480;2024-02-14T14:37:03;1.40;;;1.05;;